createdAt,value
2018-04-09T00:00:17.592Z,11.93
2018-04-09T00:02:45.053Z,13.30
2018-04-09T00:05:12.506Z,12.00
2018-04-09T00:07:43.753Z,11.80
2018-04-09T00:10:11.324Z,10.50
2018-04-09T00:12:38.908Z,12.35
2018-04-09T00:15:06.382Z,12.50
2018-04-09T00:17:33.857Z,12.17
2018-04-09T00:20:01.469Z,10.40
2018-04-09T00:22:33.301Z,11.87
2018-04-09T00:25:00.766Z,10.43
2018-04-09T00:27:29.230Z,11.00
2018-04-09T00:29:56.717Z,11.35
2018-04-09T00:32:24.165Z,14.10
2018-04-09T00:34:51.680Z,15.52
2018-04-09T00:37:19.148Z,14.50
2018-04-09T00:39:46.658Z,13.10
2018-04-09T00:42:14.350Z,12.20
2018-04-09T00:47:40.089Z,11.80
2018-04-09T00:50:07.539Z,11.45
2018-04-09T00:52:39.205Z,11.35
2018-04-09T00:55:07.484Z,12.73
2018-04-09T00:57:35.006Z,13.17
2018-04-09T01:00:03.284Z,14.00
2018-04-09T01:02:30.744Z,11.80
2018-04-09T01:04:59.016Z,12.95
2018-04-09T01:07:26.836Z,13.68
2018-04-09T01:09:54.317Z,14.40
2018-04-09T01:12:21.792Z,12.75
2018-04-09T01:14:50.005Z,14.07
2018-04-09T01:17:17.498Z,15.13
2018-04-09T01:19:45.399Z,14.95
2018-04-09T01:22:12.884Z,12.07
2018-04-09T01:24:40.341Z,12.50
2018-04-09T01:27:07.826Z,13.00
2018-04-09T01:29:35.299Z,13.02
2018-04-09T01:32:02.775Z,12.30
2018-04-09T01:34:30.242Z,13.33
2018-04-09T01:36:57.728Z,12.60
2018-04-09T01:39:25.218Z,14.70
2018-04-09T01:41:52.659Z,14.10
2018-04-09T01:44:20.155Z,15.60
2018-04-09T01:46:49.017Z,13.67
2018-04-09T01:49:16.527Z,16.70
2018-04-09T01:51:43.981Z,14.45
2018-04-09T01:54:14.899Z,13.07
2018-04-09T01:56:43.594Z,11.47
2018-04-09T01:59:11.056Z,13.80
2018-04-09T02:01:38.549Z,12.75
2018-04-09T02:04:06.046Z,15.40
2018-04-09T02:06:33.486Z,13.63
2018-04-09T02:09:04.912Z,14.30
2018-04-09T02:11:32.683Z,14.13
2018-04-09T02:14:00.139Z,13.23
2018-04-09T02:16:27.628Z,13.70
2018-04-09T02:18:55.086Z,14.27
2018-04-09T02:21:22.576Z,13.53
2018-04-09T02:23:50.034Z,14.67
2018-04-09T02:26:17.542Z,14.43
2018-04-09T02:28:44.995Z,13.60
2018-04-09T02:31:12.456Z,14.97
2018-04-09T02:33:40.712Z,13.40
2018-04-09T02:36:08.429Z,16.98
2018-04-09T02:38:35.892Z,16.30
2018-04-09T02:41:03.346Z,14.17
2018-04-09T02:43:30.829Z,14.75
2018-04-09T02:45:58.294Z,16.75
2018-04-09T02:48:25.786Z,17.30
2018-04-09T02:50:53.236Z,16.92
2018-04-09T02:53:20.732Z,17.05
2018-04-09T02:55:48.187Z,14.05
2018-04-09T02:58:15.690Z,15.23
2018-04-09T03:00:43.834Z,17.40
2018-04-09T03:03:11.299Z,15.43
2018-04-09T03:05:38.786Z,16.75
2018-04-09T03:08:06.232Z,17.77
2018-04-09T03:10:33.721Z,15.30
2018-04-09T03:13:01.193Z,17.27
2018-04-09T03:15:28.662Z,17.23
2018-04-09T03:17:56.210Z,15.73
2018-04-09T03:20:23.753Z,15.73
2018-04-09T03:22:52.010Z,15.43
2018-04-09T03:25:19.514Z,17.10
2018-04-09T03:27:47.813Z,15.07
2018-04-09T03:30:17.083Z,15.85
2018-04-09T03:32:44.785Z,16.40
2018-04-09T03:35:13.018Z,15.30
2018-04-09T03:37:41.496Z,15.38
2018-04-09T03:40:13.185Z,16.33
2018-04-09T03:42:40.651Z,18.65
2018-04-09T03:45:08.135Z,16.40
2018-04-09T03:47:37.054Z,16.08
2018-04-09T03:50:04.636Z,15.93
2018-04-09T03:52:32.411Z,17.03
2018-04-09T03:55:01.491Z,17.83
2018-04-09T03:57:29.014Z,17.10
2018-04-09T03:59:57.029Z,15.90
2018-04-09T04:02:24.530Z,17.15
2018-04-09T04:04:51.989Z,18.37
2018-04-09T04:07:20.414Z,16.43
2018-04-09T04:09:48.074Z,17.35
2018-04-09T04:12:15.533Z,16.20
2018-04-09T04:14:43.074Z,16.10
2018-04-09T04:17:22.359Z,17.17
2018-04-09T04:20:03.248Z,15.57
2018-04-09T04:22:30.715Z,15.70
2018-04-09T04:24:58.319Z,14.97
2018-04-09T04:27:25.773Z,16.40
2018-04-09T04:29:53.228Z,15.50
2018-04-09T04:32:20.740Z,16.40
2018-04-09T04:34:48.233Z,15.33
2018-04-09T04:37:15.692Z,17.83
2018-04-09T04:39:43.194Z,17.42
2018-04-09T04:42:10.714Z,17.72
2018-04-09T04:44:38.169Z,17.50
2018-04-09T04:47:06.161Z,17.05
2018-04-09T04:49:33.650Z,18.13
2018-04-09T04:52:01.126Z,18.50
2018-04-09T04:54:28.685Z,15.13
2018-04-09T04:56:56.289Z,14.45
2018-04-09T04:59:23.734Z,14.80
2018-04-09T05:01:51.252Z,15.48
2018-04-09T05:04:19.638Z,14.82
2018-04-09T05:06:47.080Z,15.63
2018-04-09T05:09:14.579Z,14.67
2018-04-09T05:11:45.370Z,14.13
2018-04-09T05:14:12.843Z,13.53
2018-04-09T05:16:40.331Z,14.90
2018-04-09T05:19:07.778Z,16.15
2018-04-09T05:21:35.330Z,15.50
2018-04-09T05:24:03.557Z,15.13
2018-04-09T05:26:31.068Z,14.93
2018-04-09T05:29:01.474Z,15.02
2018-04-09T05:31:29.766Z,16.63
2018-04-09T05:33:57.261Z,15.87
2018-04-09T05:36:25.515Z,16.00
2018-04-09T05:38:53.075Z,14.95
2018-04-09T05:41:20.514Z,13.90
2018-04-09T05:43:51.584Z,14.67
2018-04-09T05:46:19.096Z,14.23
2018-04-09T05:48:46.816Z,14.83
2018-04-09T05:51:15.077Z,16.85
2018-04-09T05:53:42.569Z,15.73
2018-04-09T05:56:10.801Z,17.23
2018-04-09T05:58:41.129Z,15.00
2018-04-09T06:01:08.600Z,16.97
2018-04-09T06:03:36.354Z,16.60
2018-04-09T06:06:03.820Z,17.02
2018-04-09T06:08:31.945Z,15.93
2018-04-09T06:10:59.457Z,15.30
2018-04-09T06:13:27.695Z,14.53
2018-04-09T06:15:55.218Z,15.83
2018-04-09T06:18:22.691Z,16.10
2018-04-09T06:20:50.219Z,16.10
2018-04-09T06:23:17.709Z,16.60
2018-04-09T06:25:45.971Z,19.80
2018-04-09T06:28:13.452Z,19.23
2018-04-09T06:30:40.922Z,20.73
2018-04-09T06:33:08.718Z,26.15
2018-04-09T06:35:36.189Z,20.50
2018-04-09T06:38:03.652Z,18.30
2018-04-09T06:40:31.134Z,25.45
2018-04-09T06:42:58.619Z,37.07
2018-04-09T06:45:26.185Z,34.97
2018-04-09T06:47:54.837Z,39.35
2018-04-09T06:50:22.322Z,27.95
2018-04-09T06:52:49.822Z,20.73
2018-04-09T06:55:19.002Z,22.87
2018-04-09T06:57:46.512Z,19.60
2018-04-09T07:00:14.694Z,28.12
2018-04-09T07:02:42.184Z,39.00
2018-04-09T07:05:09.673Z,30.83
2018-04-09T07:07:38.079Z,31.80
2018-04-09T07:10:05.591Z,35.10
2018-04-09T07:12:33.121Z,35.23
2018-04-09T07:15:04.495Z,33.20
2018-04-09T07:17:31.945Z,27.45
2018-04-09T07:19:59.423Z,28.20
2018-04-09T07:22:28.566Z,27.08
2018-04-09T07:24:56.081Z,25.60
2018-04-09T07:27:23.602Z,24.52
2018-04-09T07:29:52.098Z,27.42
2018-04-09T07:32:19.587Z,22.90
2018-04-09T07:34:47.060Z,24.23
2018-04-09T07:37:14.537Z,23.20
2018-04-09T07:39:42.109Z,23.17
2018-04-09T07:42:09.571Z,27.25
2018-04-09T07:44:37.032Z,21.60
2018-04-09T07:47:04.528Z,21.00
2018-04-09T07:49:31.988Z,21.67
2018-04-09T07:51:59.450Z,21.30
2018-04-09T07:54:26.938Z,22.03
2018-04-09T07:56:55.266Z,19.96
2018-04-09T07:59:22.718Z,19.60
2018-04-09T08:01:50.198Z,18.80
2018-04-09T08:04:17.644Z,19.87
2018-04-09T08:06:45.141Z,19.30
2018-04-09T08:09:12.617Z,18.83
2018-04-09T08:11:40.097Z,18.90
2018-04-09T08:14:08.468Z,18.60
2018-04-09T08:16:35.922Z,20.92
2018-04-09T08:19:03.445Z,18.33
2018-04-09T08:21:30.925Z,17.90
2018-04-09T08:23:58.407Z,19.40
2018-04-09T08:26:25.907Z,20.35
2018-04-09T08:28:53.398Z,19.07
2018-04-09T08:31:20.857Z,18.97
2018-04-09T08:33:48.317Z,18.98
2018-04-09T08:36:16.745Z,19.95
2018-04-09T08:38:44.965Z,17.63
2018-04-09T08:41:12.430Z,18.90
2018-04-09T08:43:40.260Z,18.30
2018-04-09T08:46:07.954Z,18.63
2018-04-09T08:48:35.646Z,17.67
2018-04-09T08:51:03.117Z,16.08
2018-04-09T08:53:30.574Z,17.60
2018-04-09T08:55:58.420Z,16.93
2018-04-09T08:58:25.865Z,18.13
2018-04-09T09:00:53.335Z,18.17
2018-04-09T09:03:20.998Z,16.33
2018-04-09T09:05:48.457Z,16.55
2018-04-09T09:08:16.107Z,16.95
2018-04-09T09:10:44.147Z,15.75
2018-04-09T09:13:11.593Z,17.10
2018-04-09T09:15:39.637Z,18.10
2018-04-09T09:18:10.417Z,17.00
2018-04-09T09:20:38.223Z,17.50
2018-04-09T09:23:06.057Z,18.27
2018-04-09T09:25:33.541Z,17.97
2018-04-09T09:28:01.003Z,17.33
2018-04-09T09:30:28.495Z,15.03
2018-04-09T09:32:58.894Z,15.82
2018-04-09T09:35:26.350Z,15.70
2018-04-09T09:37:54.621Z,15.97
2018-04-09T09:40:22.605Z,15.82
2018-04-09T09:42:50.062Z,16.43
2018-04-09T09:45:18.320Z,14.93
2018-04-09T09:47:45.785Z,15.85
2018-04-09T09:50:13.287Z,16.20
2018-04-09T09:52:40.892Z,15.70
2018-04-09T09:55:08.685Z,14.63
2018-04-09T09:57:37.448Z,14.80
2018-04-09T10:00:04.933Z,16.37
2018-04-09T10:02:36.764Z,16.90
2018-04-09T10:05:04.205Z,16.42
2018-04-09T10:07:31.854Z,16.12
2018-04-09T10:09:59.447Z,16.50
2018-04-09T10:12:26.901Z,15.70
2018-04-09T10:14:55.149Z,19.20
2018-04-09T10:17:22.622Z,13.07
2018-04-09T10:19:54.559Z,15.73
2018-04-09T10:22:22.021Z,17.43
2018-04-09T10:24:49.522Z,13.83
2018-04-09T10:27:17.029Z,13.23
2018-04-09T10:29:44.514Z,12.10
2018-04-09T10:32:11.981Z,11.45
2018-04-09T10:34:40.219Z,11.05
2018-04-09T10:37:07.864Z,11.70
2018-04-09T10:39:35.345Z,11.30
2018-04-09T10:42:02.835Z,11.07
2018-04-09T10:44:30.306Z,10.97
2018-04-09T10:46:57.805Z,12.63
2018-04-09T10:49:28.789Z,12.07
2018-04-09T10:51:56.230Z,11.70
2018-04-09T10:54:25.155Z,10.43
2018-04-09T10:56:52.601Z,10.60
2018-04-09T10:59:22.955Z,10.00
2018-04-09T11:01:50.448Z,10.93
2018-04-09T11:04:17.919Z,9.40
2018-04-09T11:06:45.399Z,11.20
2018-04-09T11:09:14.578Z,10.70
2018-04-09T11:11:42.086Z,11.57
2018-04-09T11:14:09.506Z,10.23
2018-04-09T11:16:36.996Z,10.43
2018-04-09T11:19:04.609Z,9.73
2018-04-09T11:21:32.330Z,10.10
2018-04-09T11:23:59.781Z,10.43
2018-04-09T11:26:28.671Z,7.80
2018-04-09T11:28:56.590Z,9.20
2018-04-09T11:31:24.049Z,8.57
2018-04-09T11:33:52.250Z,9.73
2018-04-09T11:36:20.493Z,8.55
2018-04-09T11:38:47.961Z,8.32
2018-04-09T11:41:15.716Z,7.90
2018-04-09T11:43:43.361Z,7.80
2018-04-09T11:46:11.992Z,8.52
2018-04-09T11:48:43.133Z,7.83
2018-04-09T11:51:10.592Z,7.93
2018-04-09T11:53:38.074Z,9.00
2018-04-09T11:56:05.540Z,7.07
2018-04-09T11:58:33.027Z,7.85
2018-04-09T12:01:01.444Z,7.80
2018-04-09T12:03:32.767Z,7.23
2018-04-09T12:06:00.243Z,8.25
2018-04-09T12:08:27.703Z,7.17
2018-04-09T12:10:56.878Z,6.44
2018-04-09T12:13:26.751Z,7.73
2018-04-09T12:15:54.267Z,6.30
2018-04-09T12:18:21.745Z,9.50
2018-04-09T12:20:53.045Z,6.23
2018-04-09T12:23:21.452Z,5.93
2018-04-09T12:25:48.999Z,5.57
2018-04-09T12:28:16.447Z,7.57
2018-04-09T12:30:43.925Z,6.00
2018-04-09T12:33:12.160Z,6.62
2018-04-09T12:35:40.460Z,5.93
2018-04-09T12:38:07.912Z,7.95
2018-04-09T12:40:35.418Z,4.90
2018-04-09T12:43:03.127Z,5.40
2018-04-09T12:45:30.670Z,5.70
2018-04-09T12:47:58.161Z,5.30
2018-04-09T12:50:25.613Z,5.43
2018-04-09T12:52:53.096Z,4.30
2018-04-09T12:55:20.632Z,5.80
2018-04-09T12:57:49.050Z,6.62
2018-04-09T13:00:16.543Z,4.57
2018-04-09T13:02:44.017Z,4.73
2018-04-09T13:05:11.470Z,16.90
2018-04-09T13:07:38.967Z,4.07
2018-04-09T13:10:06.458Z,4.07
2018-04-09T13:12:33.896Z,4.37
2018-04-09T13:15:02.487Z,3.62
2018-04-09T13:17:29.982Z,4.20
2018-04-09T13:20:01.392Z,4.20
2018-04-09T13:22:28.877Z,6.33
2018-04-09T13:24:57.275Z,4.35
2018-04-09T13:27:24.797Z,4.23
2018-04-09T13:29:52.287Z,4.20
2018-04-09T13:32:19.727Z,4.50
2018-04-09T13:34:48.179Z,4.55
2018-04-09T13:37:16.174Z,3.92
2018-04-09T13:39:43.647Z,4.20
2018-04-09T13:42:12.162Z,4.80
2018-04-09T13:44:39.734Z,4.07
2018-04-09T13:47:07.348Z,5.63
2018-04-09T13:49:36.025Z,3.43
2018-04-09T13:52:04.365Z,4.17
2018-04-09T13:54:31.903Z,5.05
2018-04-09T13:56:59.347Z,3.67
2018-04-09T13:59:27.604Z,2.65
2018-04-09T14:01:56.556Z,3.88
2018-04-09T14:04:24.087Z,2.43
2018-04-09T14:06:51.539Z,3.67
2018-04-09T14:09:19.031Z,4.80
2018-04-09T14:11:46.493Z,3.03
2018-04-09T14:14:14.279Z,4.07
2018-04-09T14:16:41.754Z,3.55
2018-04-09T14:19:09.239Z,3.33
2018-04-09T14:21:41.673Z,3.60
2018-04-09T14:24:09.792Z,3.40
2018-04-09T14:26:38.000Z,3.70
2018-04-09T14:29:05.536Z,5.40
2018-04-09T14:31:32.979Z,3.20
2018-04-09T14:34:00.467Z,2.92
2018-04-09T14:36:32.476Z,3.12
2018-04-09T14:39:01.281Z,2.93
2018-04-09T14:41:29.193Z,3.67
2018-04-09T14:43:56.820Z,3.35
2018-04-09T14:46:24.364Z,3.17
2018-04-09T14:48:51.840Z,4.75
2018-04-09T14:51:23.332Z,4.20
2018-04-09T14:53:50.824Z,3.27
2018-04-09T14:56:19.615Z,4.07
2018-04-09T14:58:47.092Z,4.37
2018-04-09T15:01:15.101Z,4.55
2018-04-09T15:03:43.316Z,3.33
2018-04-09T15:06:10.825Z,2.67
2018-04-09T15:08:38.512Z,3.43
2018-04-09T15:11:05.962Z,3.13
2018-04-09T15:13:33.543Z,3.67
2018-04-09T15:16:01.036Z,3.60
2018-04-09T15:18:28.499Z,3.20
2018-04-09T15:20:56.923Z,4.10
2018-04-09T15:23:24.384Z,3.40
2018-04-09T15:25:51.836Z,3.10
2018-04-09T15:28:19.353Z,3.17
2018-04-09T15:30:46.963Z,3.60
2018-04-09T15:33:14.807Z,4.40
2018-04-09T15:35:42.277Z,7.07
2018-04-09T15:38:13.041Z,4.60
2018-04-09T15:40:40.724Z,4.32
2018-04-09T15:43:09.100Z,4.10
2018-04-09T15:45:36.632Z,6.03
2018-04-09T15:48:04.111Z,3.67
2018-04-09T15:50:31.581Z,3.77
2018-04-09T15:53:04.955Z,4.00
2018-04-09T15:55:32.427Z,3.90
2018-04-09T15:58:00.612Z,3.42
2018-04-09T16:00:28.058Z,3.10
2018-04-09T16:02:56.316Z,5.00
2018-04-09T16:08:02.790Z,4.70
2018-04-09T16:10:30.277Z,5.00
2018-04-09T16:12:57.758Z,4.20
2018-04-09T16:15:26.991Z,3.90
2018-04-09T16:18:05.991Z,3.67
2018-04-09T16:20:33.476Z,3.33
2018-04-09T16:23:01.127Z,3.30
2018-04-09T16:25:28.869Z,4.47
2018-04-09T16:27:56.403Z,5.40
2018-04-09T16:30:23.910Z,4.60
2018-04-09T16:32:52.027Z,4.32
2018-04-09T16:35:19.598Z,4.00
2018-04-09T16:37:47.835Z,4.37
2018-04-09T16:40:15.343Z,4.43
2018-04-09T16:42:42.821Z,3.57
2018-04-09T16:45:11.200Z,4.00
2018-04-09T16:47:38.893Z,4.13
2018-04-09T16:50:06.351Z,3.50
2018-04-09T16:52:34.054Z,3.60
2018-04-09T16:55:01.576Z,4.40
2018-04-09T16:57:29.058Z,4.05
2018-04-09T16:59:56.539Z,3.70
2018-04-09T17:02:24.173Z,3.83
2018-04-09T17:04:51.928Z,3.60
2018-04-09T17:07:20.402Z,4.80
2018-04-09T17:09:54.854Z,4.45
2018-04-09T17:12:22.308Z,3.53
2018-04-09T17:14:50.156Z,4.80
2018-04-09T17:17:18.413Z,4.78
2018-04-09T17:19:45.881Z,4.00
2018-04-09T17:22:13.323Z,4.57
2018-04-09T17:24:41.882Z,4.83
2018-04-09T17:27:09.605Z,4.03
2018-04-09T17:29:37.696Z,5.53
2018-04-09T17:32:05.177Z,4.28
2018-04-09T17:34:32.653Z,5.30
2018-04-09T17:37:00.115Z,5.23
2018-04-09T17:39:27.776Z,5.05
2018-04-09T17:41:55.236Z,4.83
2018-04-09T17:44:23.088Z,5.70
2018-04-09T17:46:50.645Z,5.90
2018-04-09T17:49:18.897Z,6.13
2018-04-09T17:51:46.446Z,6.32
2018-04-09T17:54:13.990Z,5.83
2018-04-09T17:56:41.470Z,5.96
2018-04-09T17:59:10.240Z,6.80
2018-04-09T18:01:37.720Z,7.03
2018-04-09T18:04:05.205Z,7.17
2018-04-09T18:06:32.709Z,5.90
2018-04-09T18:09:00.232Z,5.73
2018-04-09T18:11:30.615Z,6.17
2018-04-09T18:13:58.074Z,5.43
2018-04-09T18:16:27.174Z,6.65
2018-04-09T18:18:54.657Z,7.40
2018-04-09T18:21:22.108Z,5.32
2018-04-09T18:23:49.616Z,6.07
2018-04-09T18:26:21.155Z,6.77
2018-04-09T18:28:48.607Z,7.03
2018-04-09T18:31:16.088Z,8.87
2018-04-09T18:33:43.580Z,7.85
2018-04-09T18:36:11.072Z,6.57
2018-04-09T18:38:38.544Z,6.37
2018-04-09T18:41:05.991Z,8.03
2018-04-09T18:43:33.551Z,7.50
2018-04-09T18:46:01.048Z,5.72
2018-04-09T18:48:30.196Z,5.60
2018-04-09T18:50:57.703Z,5.53
2018-04-09T18:53:25.150Z,5.95
2018-04-09T18:55:56.900Z,8.07
2018-04-09T18:58:24.739Z,6.50
2018-04-09T19:00:52.234Z,7.50
2018-04-09T19:03:19.822Z,6.93
2018-04-09T19:05:47.363Z,8.40
2018-04-09T19:08:14.927Z,7.97
2018-04-09T19:10:45.516Z,7.20
2018-04-09T19:13:13.123Z,6.70
2018-04-09T19:15:40.580Z,6.30
2018-04-09T19:18:09.812Z,6.32
2018-04-09T19:20:37.261Z,6.03
2018-04-09T19:23:04.763Z,6.47
2018-04-09T19:25:32.967Z,7.70
2018-04-09T19:28:00.444Z,6.80
2018-04-09T19:30:27.922Z,5.80
2018-04-09T19:32:55.385Z,6.47
2018-04-09T19:35:24.612Z,7.76
2018-04-09T19:37:58.085Z,6.72
2018-04-09T19:40:31.095Z,6.43
2018-04-09T19:42:58.992Z,5.90
2018-04-09T19:45:26.467Z,9.30
2018-04-09T19:47:53.953Z,7.33
2018-04-09T19:50:21.394Z,6.43
2018-04-09T19:52:48.857Z,6.90
2018-04-09T19:55:16.472Z,6.17
2018-04-09T19:57:43.920Z,7.63
2018-04-09T20:00:12.360Z,7.87
2018-04-09T20:02:39.816Z,6.10
2018-04-09T20:05:07.276Z,7.20
2018-04-09T20:07:34.764Z,7.73
2018-04-09T20:10:03.025Z,6.63
2018-04-09T20:12:30.520Z,7.35
2018-04-09T20:14:58.013Z,5.72
2018-04-09T20:17:26.384Z,6.30
2018-04-09T20:19:53.880Z,7.39
2018-04-09T20:22:21.352Z,6.87
2018-04-09T20:24:48.812Z,6.03
2018-04-09T20:27:17.547Z,6.93
2018-04-09T20:29:46.244Z,7.22
2018-04-09T20:32:13.708Z,9.05
2018-04-09T20:34:41.529Z,6.73
2018-04-09T20:37:09.039Z,8.13
2018-04-09T20:39:36.497Z,8.10
2018-04-09T20:42:04.677Z,8.28
2018-04-09T20:44:36.531Z,6.80
2018-04-09T20:47:04.000Z,7.00
2018-04-09T20:49:32.312Z,7.37
2018-04-09T20:51:59.948Z,7.60
2018-04-09T20:54:28.180Z,7.50
2018-04-09T20:56:55.659Z,7.95
2018-04-09T20:59:23.433Z,7.53
2018-04-09T21:01:50.901Z,6.60
2018-04-09T21:04:19.649Z,9.92
2018-04-09T21:06:47.123Z,7.90
2018-04-09T21:09:14.583Z,6.73
2018-04-09T21:11:42.043Z,8.77
2018-04-09T21:14:09.555Z,8.40
2018-04-09T21:16:37.615Z,8.52
2018-04-09T21:19:05.098Z,7.82
2018-04-09T21:21:32.595Z,8.33
2018-04-09T21:24:00.065Z,8.38
2018-04-09T21:26:27.820Z,8.60
2018-04-09T21:28:57.211Z,7.47
2018-04-09T21:31:24.655Z,6.80
2018-04-09T21:33:52.662Z,6.90
2018-04-09T21:36:20.403Z,8.30
2018-04-09T21:38:48.673Z,6.75
2018-04-09T21:41:16.174Z,7.55
2018-04-09T21:43:51.671Z,6.53
2018-04-09T21:46:19.267Z,8.73
2018-04-09T21:48:46.960Z,7.15
2018-04-09T21:51:14.454Z,6.90
2018-04-09T21:53:41.928Z,8.13
2018-04-09T21:56:09.379Z,6.30
2018-04-09T21:58:40.386Z,8.05
2018-04-09T22:01:07.872Z,7.17
2018-04-09T22:03:36.730Z,6.45
2018-04-09T22:06:04.188Z,6.57
2018-04-09T22:08:31.671Z,7.20
2018-04-09T22:10:59.192Z,6.78
2018-04-09T22:13:26.663Z,6.37
2018-04-09T22:15:54.163Z,7.93
2018-04-09T22:18:21.637Z,6.70
2018-04-09T22:20:49.978Z,7.80
2018-04-09T22:23:18.967Z,6.80
2018-04-09T22:25:46.465Z,7.22
2018-04-09T22:28:13.949Z,5.90
2018-04-09T22:30:41.452Z,6.73
2018-04-09T22:33:09.416Z,8.40
2018-04-09T22:35:36.935Z,5.77
2018-04-09T22:38:04.418Z,6.60
2018-04-09T22:40:31.896Z,6.68
2018-04-09T22:42:59.707Z,6.47
2018-04-09T22:45:27.147Z,5.67
2018-04-09T22:47:54.631Z,6.40
2018-04-09T22:50:22.916Z,6.90
2018-04-09T22:52:50.413Z,8.23
2018-04-09T22:55:18.669Z,7.57
2018-04-09T22:57:46.153Z,6.90
2018-04-09T23:00:13.750Z,7.43
2018-04-09T23:02:41.232Z,8.50
2018-04-09T23:05:08.714Z,8.33
2018-04-09T23:07:36.820Z,7.62
2018-04-09T23:10:04.333Z,8.90
2018-04-09T23:12:31.801Z,8.27
2018-04-09T23:15:02.530Z,8.50
2018-04-09T23:17:29.979Z,7.63
2018-04-09T23:19:57.694Z,6.77
2018-04-09T23:22:34.976Z,7.30
2018-04-09T23:25:02.426Z,6.73
2018-04-09T23:27:29.962Z,8.85
2018-04-09T23:30:01.176Z,6.63
2018-04-09T23:32:28.652Z,7.73
2018-04-09T23:34:57.908Z,7.00
2018-04-09T23:40:00.047Z,7.77
2018-04-09T23:42:28.463Z,8.07
2018-04-09T23:44:55.892Z,6.27
2018-04-09T23:47:23.387Z,8.00
2018-04-09T23:49:50.841Z,6.80
2018-04-09T23:52:18.311Z,7.53
2018-04-09T23:54:45.794Z,8.23
2018-04-09T23:57:13.244Z,6.68
2018-04-09T23:59:40.728Z,7.40
